PACDPAVC

Guest
Details From PACD - Cold Bay
To PAVC - KING COVE
Flight Number -
Tags generated
Created
Modified
Stats Distance 17 nm / 31 km
Max Altitude 0 ft / 0 m
Waypoints 2
Social Downloads 2
Likes 0
Share VATSIM

Download

Looking for another format? Having issues loading an existing format? Contact us
Advertisement - Login to hide

Notes

Basic altitude profile: - Ascent Rate: 2500ft/min - Ascent Speed: 250kts - Cruise Altitude: 35000ft - Cruise Speed: 420kts - Descent Rate: 1500ft/min - Descent Speed: 250kts Options: - Use NATs: yes - Use PACOTS: yes - Use low airways: yes - Use high airways: yes

Route

PACD PAVC

ID Type Via Altitude Latitude Longitude Leg Dist Tot Dist Heading (true) Name
O PACD APT - 0 ft / 0 m 55.20381˚ -162.72304˚ - 0 nm - Cold Bay
O PAVC APT - 0 ft / 0 m 55.11635˚ -162.26623˚ 16 nm 16 nm 108° / 109° KING COVE

Altitude Profile

Advertisement - Login to hide

PACD

Details ICAO PACD (CDB)
Name Cold Bay
Region USA (Alaska)
Timezone America/Nome (UTC-9.0)
Stats Elevation 98 ft / 30 m (AMSL)
Location 55.203815° -162.723041°
Runways 2
Magnetic Variation 10.769° E

METAR

PACD 111153Z AUTO 30004KT 10SM CLR M03/M03 A2891

Decode

TAF

TAF PACD 111132Z 1112/1212 VRB05KT P6SM VCSH SCT003 OVC040 FM111800 05005KT P6SM SCT015 OVC040 FM120000 01013KT P6SM VCSH SCT020 OVC050 FM120600 36012G20KT 5SM -RA BR SCT003 OVC009

Decode

Departure Runways

ID Width Length Bearing (true) Bearing (mag) Surface Threshold Offset Overrun Length
08 151 ft / 46 m 4,222 ft / 1,287 m 94.77° 84.00° Asphalt 0 ft / 0 m 0 ft / 0 m
14 151 ft / 46 m 10,407 ft / 3,172 m 158.39° 147.62° Asphalt 0 ft / 0 m 0 ft / 0 m
26 151 ft / 46 m 4,222 ft / 1,287 m 274.79° 264.02° Asphalt 0 ft / 0 m 0 ft / 0 m
32 151 ft / 46 m 10,407 ft / 3,172 m 338.41° 327.64° Asphalt 0 ft / 0 m 0 ft / 0 m

PAVC

Details ICAO PAVC (KVC)
Name KING COVE
Region USA (Alaska)
Timezone America/Nome (UTC-9.0)
Stats Elevation 155 ft / 47 m (AMSL)
Location 55.116347° -162.266228°
Runways 1
Magnetic Variation 10.951° E

METAR

PAVC 111156Z AUTO 00000KT 10SM SCT110 M01/M01 A2893 RMK AO2 SLP803 70005 T10111011 10011 21011 53004 FZRANO

Decode

TAF

Not found

Destination Runways

ID Width Length Bearing (true) Bearing (mag) Surface Threshold Offset Overrun Length
07 115 ft / 35 m 3,350 ft / 1,021 m 84.99° 74.04° Gravel 0 ft / 0 m 0 ft / 0 m
25 115 ft / 35 m 3,350 ft / 1,021 m 265.01° 254.06° Gravel 0 ft / 0 m 0 ft / 0 m